Time;durP1;ratioP1;P1;durP2;ratioP2;P2;SDS_P1;SDS_P2;PMS_P1;PMS_P2;Temp;Humidity;BMP_temperature;BMP_pressure;BME280_temperature;BME280_humidity;BME280_pressure;Samples;Min_cycle;Max_cycle;Signal;HPM_P1;HPM_P2
2023/06/06 00:01:52;;;;;;;;;;;;;;;15.75;100.00;95862.53;5105120;28;20431;-74
2023/06/06 00:04:18;;;;;;;;;;;;;;;15.70;100.00;95865.53;5092817;28;19931;-74
2023/06/06 00:06:45;;;;;;;;;;;;;;;15.60;100.00;95861.97;5104493;28;19924;-74
2023/06/06 00:09:11;;;;;;;;;;;;;;;15.54;100.00;95862.50;5094837;28;20382;-74
2023/06/06 00:11:39;;;;;;;;;;;;;;;15.39;100.00;95867.16;5078729;28;19925;-74
2023/06/06 00:14:06;;;;;;;;;;;;;;;15.37;100.00;95863.84;5095694;28;20263;-74
2023/06/06 00:16:32;;;;;;;;;;;;;;;15.52;100.00;95872.22;5088484;28;19924;-74
2023/06/06 00:18:59;;;;;;;;;;;;;;;15.52;100.00;95866.16;5101548;28;19924;-74
2023/06/06 00:21:27;;;;;;;;;;;;;;;15.33;100.00;95862.44;5091537;28;19924;-74
2023/06/06 00:23:55;;;;;;;;;;;;;;;15.28;100.00;95866.34;5103376;28;20012;-74
2023/06/06 00:26:21;;;;;;;;;;;;;;;15.25;100.00;95870.06;5093868;28;19955;-74
2023/06/06 00:28:49;;;;;;;;;;;;;;;15.14;100.00;95872.69;5081573;28;19969;-74
2023/06/06 00:31:15;;;;;;;;;;;;;;;15.18;100.00;95866.28;5099081;28;19931;-74
2023/06/06 00:33:41;;;;;;;;;;;;;;;15.15;100.00;95867.34;5096127;28;19932;-75
2023/06/06 00:36:08;;;;;;;;;;;;;;;15.18;100.00;95864.50;5096579;28;19928;-75
2023/06/06 00:38:34;;;;;;;;;;;;;;;14.95;100.00;95865.50;5086925;28;19982;-75
2023/06/06 00:41:00;;;;;;;;;;;;;;;14.96;100.00;95862.75;5097419;28;19969;-74
2023/06/06 00:43:26;;;;;;;;;;;;;;;14.99;100.00;95864.28;5089922;28;20329;-74
2023/06/06 00:45:54;;;;;;;;;;;;;;;14.89;100.00;95864.19;5091218;28;19924;-74
2023/06/06 00:48:22;;;;;;;;;;;;;;;14.86;100.00;95860.97;5089546;28;19931;-74
2023/06/06 00:50:50;;;;;;;;;;;;;;;14.60;100.00;95866.44;5093607;28;20014;-74
2023/06/06 00:53:16;;;;;;;;;;;;;;;14.51;100.00;95862.78;5080530;28;20298;-74
2023/06/06 00:55:43;;;;;;;;;;;;;;;14.37;100.00;95857.75;5095099;28;19924;-74
2023/06/06 00:58:11;;;;;;;;;;;;;;;14.22;100.00;95858.94;5095893;28;19951;-75
2023/06/06 01:00:38;;;;;;;;;;;;;;;14.19;100.00;95857.38;5090610;28;19924;-74
2023/06/06 01:03:09;;;;;;;;;;;;;;;14.26;100.00;95869.00;5093847;28;20282;-74
2023/06/06 01:05:36;;;;;;;;;;;;;;;14.26;100.00;95861.19;5094993;28;19924;-74
2023/06/06 01:08:02;;;;;;;;;;;;;;;14.36;100.00;95868.31;5090331;28;19939;-74
2023/06/06 01:10:30;;;;;;;;;;;;;;;14.28;100.00;95856.69;5090418;28;19970;-75
2023/06/06 01:13:00;;;;;;;;;;;;;;;14.30;100.00;95853.97;5090811;28;19924;-75
2023/06/06 01:15:32;;;;;;;;;;;;;;;14.23;100.00;95869.22;5093343;28;19924;-74
2023/06/06 01:18:01;;;;;;;;;;;;;;;14.19;100.00;95852.16;5090094;28;19935;-74
2023/06/06 01:20:30;;;;;;;;;;;;;;;14.13;100.00;95868.28;5087278;28;19936;-74
2023/06/06 01:22:58;;;;;;;;;;;;;;;14.15;100.00;95860.34;5095972;28;19978;-75
2023/06/06 01:25:25;;;;;;;;;;;;;;;14.16;100.00;95864.59;5083836;28;19932;-74
2023/06/06 01:27:53;;;;;;;;;;;;;;;14.09;100.00;95866.00;5089433;28;19951;-74
2023/06/06 01:30:20;;;;;;;;;;;;;;;14.08;100.00;95864.34;5087598;28;19929;-75
2023/06/06 01:33:02;;;;;;;;;;;;;;;14.12;100.00;95863.16;5092007;28;19927;-75
2023/06/06 01:35:32;;;;;;;;;;;;;;;14.11;100.00;95864.13;5098879;28;19923;-74
2023/06/06 01:38:02;;;;;;;;;;;;;;;14.17;100.00;95858.47;5087977;28;19931;-74
2023/06/06 01:40:30;;;;;;;;;;;;;;;14.19;100.00;95856.56;5088865;28;19928;-74
2023/06/06 01:42:57;;;;;;;;;;;;;;;14.19;100.00;95870.41;5090962;28;19928;-74
2023/06/06 01:45:25;;;;;;;;;;;;;;;14.18;100.00;95862.72;5098765;28;19931;-74
2023/06/06 01:47:52;;;;;;;;;;;;;;;14.23;100.00;95858.78;5103284;28;19977;-75
2023/06/06 01:50:18;;;;;;;;;;;;;;;14.18;100.00;95860.94;5100363;28;19923;-75
2023/06/06 01:52:45;;;;;;;;;;;;;;;14.26;100.00;95858.56;5079704;28;20386;-74
2023/06/06 01:55:13;;;;;;;;;;;;;;;14.26;100.00;95855.97;5081262;28;19924;-75
2023/06/06 01:57:39;;;;;;;;;;;;;;;14.04;100.00;95861.13;5094526;28;20314;-75
2023/06/06 02:00:07;;;;;;;;;;;;;;;13.99;100.00;95856.28;5099555;28;20370;-76
2023/06/06 02:02:34;;;;;;;;;;;;;;;13.96;100.00;95851.31;5085001;28;20456;-76
2023/06/06 02:05:00;;;;;;;;;;;;;;;13.92;100.00;95859.47;5082746;28;19927;-75
2023/06/06 02:07:27;;;;;;;;;;;;;;;13.85;100.00;95869.50;5097885;28;20089;-72
2023/06/06 02:09:53;;;;;;;;;;;;;;;13.72;100.00;95866.97;5088037;28;19929;-73
2023/06/06 02:12:21;;;;;;;;;;;;;;;13.70;100.00;95871.47;5083539;28;19928;-74
2023/06/06 02:14:48;;;;;;;;;;;;;;;13.66;100.00;95870.03;5085800;28;19994;-73
2023/06/06 02:17:14;;;;;;;;;;;;;;;13.57;100.00;95868.09;5080907;28;19929;-72
2023/06/06 02:19:40;;;;;;;;;;;;;;;13.57;100.00;95870.69;5094677;28;20340;-72
2023/06/06 02:22:07;;;;;;;;;;;;;;;13.63;100.00;95872.84;5083410;28;20018;-73
2023/06/06 02:24:33;;;;;;;;;;;;;;;13.51;100.00;95871.97;5096711;28;19933;-74
2023/06/06 02:27:01;;;;;;;;;;;;;;;13.35;100.00;95867.97;5087708;28;20022;-73
2023/06/06 02:29:28;;;;;;;;;;;;;;;13.30;100.00;95870.94;5082749;28;19930;-73
2023/06/06 02:31:55;;;;;;;;;;;;;;;13.14;100.00;95878.13;5085685;28;20348;-75
2023/06/06 02:34:21;;;;;;;;;;;;;;;13.02;100.00;95874.66;5099577;28;20010;-75
2023/06/06 02:36:49;;;;;;;;;;;;;;;12.89;100.00;95877.25;5090607;28;19932;-75
2023/06/06 02:39:15;;;;;;;;;;;;;;;12.82;100.00;95876.84;5084467;28;20594;-75
2023/06/06 02:41:41;;;;;;;;;;;;;;;12.79;100.00;95876.25;5083751;28;20334;-76
2023/06/06 02:44:08;;;;;;;;;;;;;;;12.75;100.00;95878.22;5093610;28;20466;-73
2023/06/06 02:46:35;;;;;;;;;;;;;;;12.80;100.00;95881.34;5095897;28;19932;-72
2023/06/06 02:49:02;;;;;;;;;;;;;;;12.82;100.00;95881.22;5094858;28;19924;-72
2023/06/06 02:51:28;;;;;;;;;;;;;;;12.88;100.00;95882.59;5092463;28;19949;-73
2023/06/06 02:53:54;;;;;;;;;;;;;;;12.91;100.00;95885.81;5096771;28;20389;-72
2023/06/06 02:56:21;;;;;;;;;;;;;;;12.96;100.00;95888.91;5097838;28;20340;-75
2023/06/06 02:58:47;;;;;;;;;;;;;;;12.96;100.00;95883.69;5094324;28;19924;-75
2023/06/06 03:01:13;;;;;;;;;;;;;;;12.98;100.00;95889.63;5081058;28;19925;-75
2023/06/06 03:03:41;;;;;;;;;;;;;;;12.89;100.00;95887.66;5089638;28;19981;-74
2023/06/06 03:06:07;;;;;;;;;;;;;;;12.83;100.00;95882.91;5094846;28;19924;-75
2023/06/06 03:08:34;;;;;;;;;;;;;;;12.85;100.00;95894.00;5098498;28;19988;-75
2023/06/06 03:11:00;;;;;;;;;;;;;;;12.85;100.00;95883.63;5078895;28;19924;-75
2023/06/06 03:13:26;;;;;;;;;;;;;;;12.75;100.00;95883.41;5095266;28;19923;-75
2023/06/06 03:15:53;;;;;;;;;;;;;;;12.69;100.00;95885.63;5095260;28;19924;-75
2023/06/06 03:18:20;;;;;;;;;;;;;;;12.61;100.00;95883.56;5091764;28;19927;-75
2023/06/06 03:20:51;;;;;;;;;;;;;;;12.55;100.00;95886.56;5084166;28;20353;-75
2023/06/06 03:23:17;;;;;;;;;;;;;;;12.50;100.00;95894.69;5100694;28;19924;-75
2023/06/06 03:25:44;;;;;;;;;;;;;;;12.52;100.00;95902.38;5094367;28;19924;-75
2023/06/06 03:28:10;;;;;;;;;;;;;;;12.49;100.00;95895.59;5094113;28;20016;-75
2023/06/06 03:30:36;;;;;;;;;;;;;;;12.48;100.00;95903.53;5097233;28;19931;-75
2023/06/06 03:33:05;;;;;;;;;;;;;;;12.55;100.00;95896.97;5100970;28;19970;-75
2023/06/06 03:35:33;;;;;;;;;;;;;;;12.62;100.00;95902.59;5099922;28;20005;-75
2023/06/06 03:38:01;;;;;;;;;;;;;;;12.67;100.00;95906.50;5100204;28;19959;-75
2023/06/06 03:40:27;;;;;;;;;;;;;;;12.71;100.00;95907.97;5092577;28;19928;-75
2023/06/06 03:42:54;;;;;;;;;;;;;;;12.77;100.00;95910.16;5095048;28;19980;-75
2023/06/06 03:45:21;;;;;;;;;;;;;;;12.78;100.00;95904.00;5097483;28;19928;-74
2023/06/06 03:47:47;;;;;;;;;;;;;;;12.79;100.00;95905.69;5098772;28;20007;-72
2023/06/06 03:50:14;;;;;;;;;;;;;;;12.73;100.00;95905.28;5105153;28;19928;-72
2023/06/06 03:52:41;;;;;;;;;;;;;;;12.68;100.00;95904.75;5103072;28;19959;-72
2023/06/06 03:55:09;;;;;;;;;;;;;;;12.59;100.00;95909.63;5090170;28;19966;-73
2023/06/06 03:57:35;;;;;;;;;;;;;;;12.61;100.00;95912.16;5096773;28;19931;-72
2023/06/06 04:00:04;;;;;;;;;;;;;;;12.65;100.00;95907.56;5099028;28;19924;-73
2023/06/06 04:02:31;;;;;;;;;;;;;;;12.50;100.00;95912.88;5095025;28;20366;-72
2023/06/06 04:05:01;;;;;;;;;;;;;;;12.38;100.00;95912.88;5095024;28;19936;-71
2023/06/06 04:07:28;;;;;;;;;;;;;;;12.35;100.00;95916.53;5097217;28;19930;-72
2023/06/06 04:09:54;;;;;;;;;;;;;;;12.43;100.00;95916.81;5098594;28;20062;-71
2023/06/06 04:12:22;;;;;;;;;;;;;;;12.26;100.00;95911.94;5077442;28;19925;-71
2023/06/06 04:14:48;;;;;;;;;;;;;;;12.11;100.00;95916.38;5099031;28;19928;-71
2023/06/06 04:17:14;;;;;;;;;;;;;;;11.99;100.00;95922.41;5086653;28;19932;-71
2023/06/06 04:19:41;;;;;;;;;;;;;;;11.98;100.00;95920.75;5098389;28;20568;-71
2023/06/06 04:22:07;;;;;;;;;;;;;;;12.05;100.00;95915.03;5091005;28;19924;-72
2023/06/06 04:24:33;;;;;;;;;;;;;;;12.16;100.00;95905.69;5099435;28;19931;-73
2023/06/06 04:27:03;;;;;;;;;;;;;;;12.28;100.00;95916.09;5087234;28;19936;-73
2023/06/06 04:29:32;;;;;;;;;;;;;;;12.39;100.00;95914.56;5093594;28;19963;-73
2023/06/06 04:31:59;;;;;;;;;;;;;;;12.51;100.00;95924.94;5099181;28;19928;-73
2023/06/06 04:34:30;;;;;;;;;;;;;;;12.59;100.00;95917.44;5098249;28;19923;-72
2023/06/06 04:36:56;;;;;;;;;;;;;;;12.71;100.00;95917.53;5090149;28;20286;-72
2023/06/06 04:39:24;;;;;;;;;;;;;;;12.87;100.00;95918.16;5097427;28;19931;-73
2023/06/06 04:41:50;;;;;;;;;;;;;;;12.95;100.00;95912.41;5091481;27;19932;-72
2023/06/06 04:44:17;;;;;;;;;;;;;;;12.98;100.00;95927.81;5092120;28;19924;-73
2023/06/06 04:46:45;;;;;;;;;;;;;;;13.04;100.00;95922.16;5088148;28;19927;-70
2023/06/06 04:49:13;;;;;;;;;;;;;;;13.12;100.00;95919.84;5091329;28;19930;-72
2023/06/06 04:51:43;;;;;;;;;;;;;;;13.15;100.00;95922.22;5094754;28;19936;-73
2023/06/06 04:54:10;;;;;;;;;;;;;;;13.24;100.00;95921.63;5080070;28;20337;-72
2023/06/06 04:56:38;;;;;;;;;;;;;;;13.30;100.00;95923.78;5099939;28;20286;-72
2023/06/06 04:59:05;;;;;;;;;;;;;;;13.39;100.00;95921.47;5093284;28;19929;-73
2023/06/06 05:01:32;;;;;;;;;;;;;;;13.46;100.00;95923.53;5088382;28;19931;-73
2023/06/06 05:03:59;;;;;;;;;;;;;;;13.58;100.00;95924.41;5095128;28;19974;-73
2023/06/06 05:06:27;;;;;;;;;;;;;;;13.72;100.00;95920.78;5086645;28;19924;-72
2023/06/06 05:08:54;;;;;;;;;;;;;;;13.87;100.00;95930.09;5096870;28;19997;-74
2023/06/06 05:11:20;;;;;;;;;;;;;;;14.10;100.00;95927.56;5093838;28;19928;-72
2023/06/06 05:13:46;;;;;;;;;;;;;;;14.21;100.00;95918.00;5088007;28;19935;-73
2023/06/06 05:16:13;;;;;;;;;;;;;;;14.19;100.00;95921.66;5089294;28;19924;-72
2023/06/06 05:18:39;;;;;;;;;;;;;;;14.18;100.00;95922.63;5098575;28;19928;-73
2023/06/06 05:21:07;;;;;;;;;;;;;;;14.23;100.00;95928.31;5100106;28;19929;-71
2023/06/06 05:23:33;;;;;;;;;;;;;;;14.27;100.00;95925.34;5093735;28;19932;-73
2023/06/06 05:26:00;;;;;;;;;;;;;;;14.34;100.00;95933.53;5091747;28;20309;-73
2023/06/06 05:28:27;;;;;;;;;;;;;;;14.61;100.00;95937.63;5092747;28;19931;-72
2023/06/06 05:30:53;;;;;;;;;;;;;;;14.67;100.00;95938.00;5083666;28;19929;-73
2023/06/06 05:33:19;;;;;;;;;;;;;;;14.70;100.00;95937.78;5093776;28;20409;-73
2023/06/06 05:35:46;;;;;;;;;;;;;;;14.88;100.00;95945.16;5091967;28;19931;-73
2023/06/06 05:38:14;;;;;;;;;;;;;;;14.90;100.00;95945.84;5098001;28;20298;-74
2023/06/06 05:40:40;;;;;;;;;;;;;;;15.07;100.00;95940.16;5099533;28;19959;-72
2023/06/06 05:43:07;;;;;;;;;;;;;;;15.23;100.00;95948.44;5088329;28;19969;-72
2023/06/06 05:45:33;;;;;;;;;;;;;;;15.30;100.00;95947.97;5088080;28;20630;-72
2023/06/06 05:48:00;;;;;;;;;;;;;;;15.42;100.00;95949.59;5085468;28;19935;-73
2023/06/06 05:50:26;;;;;;;;;;;;;;;15.58;100.00;95946.63;5088168;28;19924;-72
2023/06/06 05:52:52;;;;;;;;;;;;;;;15.80;100.00;95946.56;5088245;28;19974;-72
2023/06/06 05:55:30;;;;;;;;;;;;;;;16.03;100.00;95941.25;5093579;28;20051;-75
2023/06/06 05:57:57;;;;;;;;;;;;;;;16.32;100.00;95933.66;5096630;28;20337;-74
2023/06/06 06:00:23;;;;;;;;;;;;;;;16.50;100.00;95939.09;5094908;28;19973;-74
2023/06/06 06:02:52;;;;;;;;;;;;;;;16.56;100.00;95949.06;5091266;28;20372;-74
2023/06/06 06:05:19;;;;;;;;;;;;;;;16.97;100.00;95952.59;5095937;28;19935;-77
2023/06/06 06:07:47;;;;;;;;;;;;;;;17.14;100.00;95952.81;5083447;28;20030;-75
2023/06/06 06:10:13;;;;;;;;;;;;;;;17.20;100.00;95954.06;5102447;28;19931;-76
2023/06/06 06:12:41;;;;;;;;;;;;;;;17.35;100.00;95955.38;5086515;28;19998;-75
2023/06/06 06:15:08;;;;;;;;;;;;;;;17.48;100.00;95956.91;5099039;28;19924;-75
2023/06/06 06:17:34;;;;;;;;;;;;;;;17.64;100.00;95960.66;5100235;28;19927;-75
2023/06/06 06:20:07;;;;;;;;;;;;;;;17.69;100.00;95965.50;5091302;28;20435;-74
2023/06/06 06:22:34;;;;;;;;;;;;;;;17.85;100.00;95965.84;5099260;28;20019;-76
2023/06/06 06:25:00;;;;;;;;;;;;;;;18.02;100.00;95960.88;5097242;28;19977;-76
2023/06/06 06:27:26;;;;;;;;;;;;;;;18.14;100.00;95960.63;5095245;28;19923;-74
2023/06/06 06:29:54;;;;;;;;;;;;;;;18.34;100.00;95966.66;5100458;28;19970;-74
2023/06/06 06:32:20;;;;;;;;;;;;;;;18.06;100.00;95970.97;5098394;28;19924;-74
2023/06/06 06:34:46;;;;;;;;;;;;;;;18.20;100.00;95971.50;5090635;28;19924;-74
2023/06/06 06:37:13;;;;;;;;;;;;;;;18.43;95.12;95964.16;5099702;28;19924;-74
2023/06/06 06:39:39;;;;;;;;;;;;;;;18.48;100.00;95969.84;5093688;28;19928;-74
2023/06/06 06:42:07;;;;;;;;;;;;;;;18.51;100.00;95974.81;5100590;28;19924;-75
2023/06/06 06:44:33;;;;;;;;;;;;;;;18.63;100.00;95971.88;5092372;28;19931;-75
2023/06/06 06:47:02;;;;;;;;;;;;;;;18.62;96.52;95970.22;5087943;28;20412;-74
2023/06/06 06:49:28;;;;;;;;;;;;;;;18.56;94.62;95976.03;5098521;28;19955;-74
2023/06/06 06:51:55;;;;;;;;;;;;;;;18.50;94.73;95976.59;5087680;28;19997;-75
2023/06/06 06:54:24;;;;;;;;;;;;;;;18.61;95.16;95984.31;5085040;28;19986;-75
2023/06/06 06:56:51;;;;;;;;;;;;;;;18.82;95.24;95975.47;5081072;28;20019;-74
2023/06/06 06:59:17;;;;;;;;;;;;;;;18.76;89.56;95976.88;5100043;28;19934;-73
2023/06/06 07:01:49;;;;;;;;;;;;;;;18.62;89.57;95982.53;5104940;28;19960;-73
2023/06/06 07:04:17;;;;;;;;;;;;;;;18.14;93.41;95992.06;5070840;28;19978;-72
2023/06/06 07:06:43;;;;;;;;;;;;;;;18.05;98.08;95989.44;5086243;28;19972;-72
2023/06/06 07:09:09;;;;;;;;;;;;;;;18.15;97.89;95995.50;5072011;28;19973;-73
2023/06/06 07:11:35;;;;;;;;;;;;;;;18.33;96.12;95990.41;5085892;28;19978;-73
2023/06/06 07:14:02;;;;;;;;;;;;;;;18.57;93.85;95985.53;5075335;28;20375;-74
2023/06/06 07:16:28;;;;;;;;;;;;;;;18.72;97.81;95985.13;5056901;28;20342;-73
2023/06/06 07:18:54;;;;;;;;;;;;;;;19.01;97.89;95990.31;5089171;28;19929;-75
2023/06/06 07:21:22;;;;;;;;;;;;;;;18.95;90.64;95994.38;5068980;28;19929;-75
2023/06/06 07:23:48;;;;;;;;;;;;;;;18.73;90.22;95990.28;5080584;28;20725;-75
2023/06/06 07:26:16;;;;;;;;;;;;;;;18.89;92.01;95997.53;5084202;28;20352;-75
2023/06/06 07:28:42;;;;;;;;;;;;;;;18.98;85.07;95990.59;5064745;28;20370;-74
2023/06/06 07:31:09;;;;;;;;;;;;;;;18.82;90.60;95993.84;5084391;28;19947;-73
2023/06/06 07:33:35;;;;;;;;;;;;;;;18.69;87.52;95998.50;5076516;28;19928;-74
2023/06/06 07:36:01;;;;;;;;;;;;;;;18.89;86.61;95992.28;5085052;28;19928;-73
2023/06/06 07:38:29;;;;;;;;;;;;;;;19.00;87.86;95988.69;5068957;28;19928;-74
2023/06/06 07:40:56;;;;;;;;;;;;;;;19.21;79.16;95986.69;5085962;28;20429;-74
2023/06/06 07:43:22;;;;;;;;;;;;;;;19.33;83.78;95984.69;5083013;28;20025;-74
2023/06/06 07:45:48;;;;;;;;;;;;;;;19.63;83.85;95990.66;5072666;28;19932;-75
2023/06/06 07:48:15;;;;;;;;;;;;;;;19.67;79.53;95984.13;5085357;28;19937;-74
2023/06/06 07:50:41;;;;;;;;;;;;;;;19.82;78.59;95986.09;5085055;28;19968;-75
2023/06/06 07:53:07;;;;;;;;;;;;;;;19.82;75.87;95980.03;5070791;28;19974;-74
2023/06/06 07:55:36;;;;;;;;;;;;;;;19.96;76.47;95981.34;5076462;28;19989;-75
2023/06/06 07:58:05;;;;;;;;;;;;;;;19.98;70.88;95979.38;5074961;28;19928;-75
2023/06/06 08:00:31;;;;;;;;;;;;;;;20.13;78.67;95983.13;5072556;28;20043;-75
2023/06/06 08:02:58;;;;;;;;;;;;;;;20.28;68.88;95979.00;5081808;28;19924;-74
2023/06/06 08:05:24;;;;;;;;;;;;;;;20.47;72.75;95979.81;5085492;28;19932;-74
2023/06/06 08:07:50;;;;;;;;;;;;;;;20.40;64.47;95978.78;5077082;28;19932;-75
2023/06/06 08:10:17;;;;;;;;;;;;;;;20.59;66.85;95973.38;5083250;28;19979;-75
2023/06/06 08:12:45;;;;;;;;;;;;;;;20.78;69.42;95986.34;5078106;28;20300;-75
2023/06/06 08:15:13;;;;;;;;;;;;;;;20.89;65.62;95985.25;5083484;28;20352;-75
2023/06/06 08:17:39;;;;;;;;;;;;;;;20.93;61.18;95986.59;5068439;28;19933;-75
2023/06/06 08:20:08;;;;;;;;;;;;;;;20.65;62.15;95985.88;5068632;28;19978;-74
2023/06/06 08:22:37;;;;;;;;;;;;;;;20.94;64.18;95982.97;5080194;28;20036;-77
2023/06/06 08:25:04;;;;;;;;;;;;;;;20.93;60.45;95976.06;5087367;28;19935;-76
2023/06/06 08:27:31;;;;;;;;;;;;;;;20.92;59.85;95977.06;5081325;28;20018;-75
2023/06/06 08:29:59;;;;;;;;;;;;;;;20.66;59.81;95977.03;5066955;28;19970;-75
2023/06/06 08:32:26;;;;;;;;;;;;;;;20.89;58.91;95977.34;5063456;28;20277;-73
2023/06/06 08:34:52;;;;;;;;;;;;;;;20.93;57.98;95980.50;5067472;28;20012;-76
2023/06/06 08:37:18;;;;;;;;;;;;;;;21.02;58.54;95982.19;5073909;28;19970;-76
2023/06/06 08:39:47;;;;;;;;;;;;;;;21.09;57.47;95979.78;5080983;28;19936;-75
2023/06/06 08:42:16;;;;;;;;;;;;;;;21.27;60.03;95977.91;5076246;28;19928;-76
2023/06/06 08:44:42;;;;;;;;;;;;;;;21.29;54.15;95985.66;5076678;28;19924;-75
2023/06/06 08:47:10;;;;;;;;;;;;;;;21.69;56.71;95983.22;5080798;28;20430;-75
2023/06/06 08:49:37;;;;;;;;;;;;;;;21.88;55.32;95986.56;5089345;28;19923;-76
2023/06/06 08:52:05;;;;;;;;;;;;;;;21.84;58.96;95991.34;5072069;28;19931;-76
2023/06/06 08:54:32;;;;;;;;;;;;;;;21.96;58.93;95990.03;5081671;28;19928;-76
2023/06/06 08:56:59;;;;;;;;;;;;;;;22.19;55.96;95992.91;5077553;28;19932;-77
2023/06/06 08:59:26;;;;;;;;;;;;;;;22.44;58.56;95985.03;5070385;28;19925;-77
2023/06/06 09:01:52;;;;;;;;;;;;;;;22.06;54.91;95987.25;5078634;28;19935;-77
2023/06/06 09:04:20;;;;;;;;;;;;;;;22.21;52.94;95983.03;5071650;28;19944;-74
2023/06/06 09:06:50;;;;;;;;;;;;;;;21.98;52.10;95988.06;5077324;28;19938;-75
2023/06/06 09:09:16;;;;;;;;;;;;;;;22.38;54.16;95994.41;5075966;28;19925;-76
2023/06/06 09:11:42;;;;;;;;;;;;;;;22.38;52.26;95988.31;5069022;28;19932;-75
2023/06/06 09:14:09;;;;;;;;;;;;;;;22.30;50.05;95989.13;5077022;28;19973;-75
2023/06/06 09:16:35;;;;;;;;;;;;;;;22.21;46.30;95982.19;5069512;28;19929;-75
2023/06/06 09:19:03;;;;;;;;;;;;;;;22.44;53.68;95983.22;5074024;28;19924;-75
2023/06/06 09:21:32;;;;;;;;;;;;;;;22.52;50.52;95979.75;5067338;28;19928;-77
2023/06/06 09:23:58;;;;;;;;;;;;;;;22.74;49.98;95982.72;5080827;28;20022;-75
2023/06/06 09:26:25;;;;;;;;;;;;;;;22.94;54.27;95976.09;5066986;28;19982;-78
2023/06/06 09:28:51;;;;;;;;;;;;;;;23.11;54.68;95983.00;5086886;28;19924;-77
2023/06/06 09:31:22;;;;;;;;;;;;;;;23.05;52.04;95975.75;5076384;28;20267;-76
2023/06/06 09:33:48;;;;;;;;;;;;;;;23.16;49.45;95978.03;5075180;28;20019;-78
2023/06/06 09:36:15;;;;;;;;;;;;;;;23.15;50.81;95984.31;5083105;28;19953;-77
2023/06/06 09:38:42;;;;;;;;;;;;;;;22.93;49.17;95975.28;5067604;28;19928;-75
2023/06/06 09:41:08;;;;;;;;;;;;;;;22.87;48.81;95980.38;5091195;28;20396;-74
2023/06/06 09:43:37;;;;;;;;;;;;;;;22.89;45.92;95973.13;5076426;28;19947;-74
2023/06/06 09:46:05;;;;;;;;;;;;;;;23.16;48.72;95980.69;5072037;28;19935;-74
2023/06/06 09:48:32;;;;;;;;;;;;;;;22.86;52.94;95974.28;5075938;28;19931;-75
2023/06/06 09:50:58;;;;;;;;;;;;;;;22.98;49.59;95980.06;5078714;28;19931;-74
2023/06/06 09:53:25;;;;;;;;;;;;;;;23.13;53.19;95977.56;5072537;28;20354;-75
2023/06/06 09:55:54;;;;;;;;;;;;;;;23.02;46.93;95984.00;5080138;28;19928;-75
2023/06/06 09:58:22;;;;;;;;;;;;;;;22.95;47.04;95980.38;5076369;28;21279;-75
2023/06/06 10:00:48;;;;;;;;;;;;;;;23.09;52.15;95984.16;5069099;28;19982;-74
2023/06/06 10:03:18;;;;;;;;;;;;;;;23.18;47.08;95973.41;5073929;28;19928;-74
2023/06/06 10:05:46;;;;;;;;;;;;;;;23.20;48.29;95978.53;5076884;28;19925;-75
2023/06/06 10:08:13;;;;;;;;;;;;;;;23.35;47.21;95979.47;5079987;28;19924;-74
2023/06/06 10:10:39;;;;;;;;;;;;;;;23.43;47.19;95971.53;5069750;28;19929;-75
2023/06/06 10:13:07;;;;;;;;;;;;;;;23.65;45.51;95969.09;5083928;28;19985;-76
2023/06/06 10:15:34;;;;;;;;;;;;;;;23.50;51.38;95963.72;5074163;28;20035;-74
2023/06/06 10:18:01;;;;;;;;;;;;;;;23.55;47.32;95964.03;5073620;28;19928;-75
2023/06/06 10:20:27;;;;;;;;;;;;;;;23.11;44.29;95972.44;5083473;28;20440;-75
2023/06/06 10:22:53;;;;;;;;;;;;;;;23.35;49.02;95976.81;5078506;28;20010;-74
2023/06/06 10:25:20;;;;;;;;;;;;;;;23.54;46.05;95969.47;5076474;28;19924;-74
2023/06/06 10:27:51;;;;;;;;;;;;;;;23.59;49.55;95964.53;5072650;28;20419;-75
2023/06/06 10:30:24;;;;;;;;;;;;;;;23.74;43.46;95959.38;5079096;28;19924;-75
2023/06/06 10:32:53;;;;;;;;;;;;;;;23.58;45.58;95961.06;5078267;28;20382;-75
2023/06/06 10:35:20;;;;;;;;;;;;;;;23.77;45.06;95957.19;5081702;28;19932;-75
2023/06/06 10:38:01;;;;;;;;;;;;;;;23.88;50.23;95956.81;5077160;28;20012;-75
2023/06/06 10:40:27;;;;;;;;;;;;;;;23.93;47.90;95958.91;5078351;28;20378;-75
2023/06/06 10:42:54;;;;;;;;;;;;;;;23.80;43.95;95951.53;5076797;28;20006;-75
2023/06/06 10:45:40;;;;;;;;;;;;;;;24.17;46.09;95949.97;5078206;28;19925;-76
2023/06/06 10:48:07;;;;;;;;;;;;;;;23.85;45.59;95946.56;5053754;28;19924;-76
2023/06/06 10:50:33;;;;;;;;;;;;;;;23.92;51.51;95944.06;5074484;28;19940;-77
2023/06/06 10:53:06;;;;;;;;;;;;;;;23.96;45.63;95949.81;5076327;28;19931;-76
2023/06/06 10:55:41;;;;;;;;;;;;;;;23.78;44.38;95947.44;5078672;28;19928;-75
2023/06/06 10:58:09;;;;;;;;;;;;;;;23.81;51.25;95955.03;5071647;28;20442;-76
2023/06/06 11:00:44;;;;;;;;;;;;;;;23.43;49.58;95947.75;5076284;28;19928;-76
2023/06/06 11:03:12;;;;;;;;;;;;;;;23.59;47.52;95933.63;5081222;28;19924;-75
2023/06/06 11:05:57;;;;;;;;;;;;;;;23.45;44.13;95936.97;5076453;28;20383;-75
2023/06/06 11:08:31;;;;;;;;;;;;;;;23.57;42.64;95948.00;5073510;28;19931;-77
2023/06/06 11:11:12;;;;;;;;;;;;;;;23.30;41.75;95949.28;5066150;28;19947;-77
2023/06/06 11:13:48;;;;;;;;;;;;;;;22.64;43.16;95930.91;5085139;28;19935;-75
2023/06/06 11:16:16;;;;;;;;;;;;;;;23.52;45.03;95934.47;5054610;28;20379;-75
2023/06/06 11:18:42;;;;;;;;;;;;;;;23.14;41.70;95927.19;5063211;28;20306;-75
2023/06/06 11:21:09;;;;;;;;;;;;;;;23.58;43.46;95931.97;5072107;28;20445;-75
2023/06/06 11:23:39;;;;;;;;;;;;;;;23.19;39.29;95930.16;5077205;28;19931;-74
2023/06/06 11:26:08;;;;;;;;;;;;;;;22.99;40.03;95926.25;5061248;28;19950;-75
2023/06/06 11:28:34;;;;;;;;;;;;;;;22.93;41.78;95930.38;5084317;28;19932;-76
2023/06/06 11:31:02;;;;;;;;;;;;;;;22.40;39.41;95926.47;5075828;28;19977;-76
2023/06/06 11:33:30;;;;;;;;;;;;;;;22.89;40.81;95926.41;5075258;28;19944;-77
2023/06/06 11:35:56;;;;;;;;;;;;;;;23.43;44.10;95923.09;5063661;28;19989;-75
2023/06/06 11:38:23;;;;;;;;;;;;;;;23.62;42.06;95922.69;5074775;28;19924;-77
2023/06/06 11:40:49;;;;;;;;;;;;;;;23.90;40.63;95920.41;5068859;28;19935;-76
2023/06/06 11:43:15;;;;;;;;;;;;;;;24.04;42.50;95923.31;5079624;28;19995;-76
2023/06/06 11:45:42;;;;;;;;;;;;;;;23.79;41.30;95923.44;5075836;28;20294;-76
2023/06/06 11:48:21;;;;;;;;;;;;;;;23.77;42.35;95924.59;5080305;28;19931;-75
2023/06/06 11:50:49;;;;;;;;;;;;;;;23.69;42.53;95927.31;5081590;28;19947;-75
2023/06/06 11:53:28;;;;;;;;;;;;;;;23.46;40.76;95921.94;5081760;28;20374;-75
2023/06/06 11:55:54;;;;;;;;;;;;;;;23.54;39.72;95922.72;5082420;28;20430;-75
2023/06/06 11:58:20;;;;;;;;;;;;;;;23.51;39.95;95925.72;5083542;28;19947;-75
2023/06/06 12:00:47;;;;;;;;;;;;;;;23.37;39.29;95919.34;5073026;28;19925;-75
2023/06/06 12:03:14;;;;;;;;;;;;;;;23.39;38.53;95919.16;5080050;28;19932;-74
2023/06/06 12:05:41;;;;;;;;;;;;;;;23.55;38.75;95915.63;5069743;28;20353;-74
2023/06/06 12:08:09;;;;;;;;;;;;;;;23.26;34.48;95906.50;5081991;28;19924;-75
2023/06/06 12:10:35;;;;;;;;;;;;;;;23.27;36.94;95913.44;5075327;28;20323;-74
2023/06/06 12:13:02;;;;;;;;;;;;;;;23.51;38.24;95922.25;5091310;28;19924;-75
2023/06/06 12:15:43;;;;;;;;;;;;;;;22.59;37.48;95920.03;5071182;28;20413;-73
2023/06/06 12:18:09;;;;;;;;;;;;;;;22.53;39.22;95914.59;5071084;28;19935;-73
2023/06/06 12:20:35;;;;;;;;;;;;;;;22.32;39.39;95913.28;5081255;28;19947;-73
2023/06/06 12:23:02;;;;;;;;;;;;;;;22.49;39.03;95915.91;5076587;28;19924;-73
2023/06/06 12:25:29;;;;;;;;;;;;;;;22.58;38.78;95917.53;5079881;28;20402;-73
2023/06/06 12:28:07;;;;;;;;;;;;;;;22.43;39.35;95928.78;5076653;28;19946;-73
2023/06/06 12:30:34;;;;;;;;;;;;;;;22.69;41.70;95920.69;5079345;28;20424;-73
2023/06/06 12:33:01;;;;;;;;;;;;;;;22.62;36.39;95917.06;5075986;28;19924;-73
2023/06/06 12:35:27;;;;;;;;;;;;;;;22.74;40.91;95909.59;5071077;28;20019;-73
2023/06/06 12:37:55;;;;;;;;;;;;;;;22.93;39.93;95903.97;5070064;28;20426;-71
2023/06/06 12:40:23;;;;;;;;;;;;;;;23.10;38.94;95906.56;5074526;28;20003;-72
2023/06/06 12:42:54;;;;;;;;;;;;;;;23.01;37.78;95903.13;5087849;28;20428;-72